sensor_id;sensor_type;location;lat;lon;timestamp;P1;durP1;ratioP1;P2;durP2;ratioP2
29728;SDS011;20055;51.498;11.960;2024-03-08T00:02:15;69.85;;;31.92;;
29728;SDS011;20055;51.498;11.960;2024-03-08T00:04:41;68.10;;;30.35;;
29728;SDS011;20055;51.498;11.960;2024-03-08T00:07:08;62.80;;;31.38;;
29728;SDS011;20055;51.498;11.960;2024-03-08T00:09:34;68.45;;;32.72;;
29728;SDS011;20055;51.498;11.960;2024-03-08T00:12:00;61.25;;;30.30;;
29728;SDS011;20055;51.498;11.960;2024-03-08T00:14:26;67.93;;;32.50;;
29728;SDS011;20055;51.498;11.960;2024-03-08T00:16:53;68.57;;;33.38;;
29728;SDS011;20055;51.498;11.960;2024-03-08T00:19:20;72.75;;;32.25;;
29728;SDS011;20055;51.498;11.960;2024-03-08T00:21:46;71.55;;;33.08;;
29728;SDS011;20055;51.498;11.960;2024-03-08T00:24:12;65.97;;;31.20;;
29728;SDS011;20055;51.498;11.960;2024-03-08T00:26:38;76.88;;;33.17;;
29728;SDS011;20055;51.498;11.960;2024-03-08T00:29:04;60.45;;;29.13;;
29728;SDS011;20055;51.498;11.960;2024-03-08T00:31:31;67.97;;;30.45;;
29728;SDS011;20055;51.498;11.960;2024-03-08T00:33:57;63.95;;;30.27;;
29728;SDS011;20055;51.498;11.960;2024-03-08T00:36:24;62.08;;;30.83;;
29728;SDS011;20055;51.498;11.960;2024-03-08T00:38:50;73.45;;;31.45;;
29728;SDS011;20055;51.498;11.960;2024-03-08T00:41:16;74.47;;;33.53;;
29728;SDS011;20055;51.498;11.960;2024-03-08T00:43:42;69.65;;;33.75;;
29728;SDS011;20055;51.498;11.960;2024-03-08T00:46:09;65.75;;;31.92;;
29728;SDS011;20055;51.498;11.960;2024-03-08T00:48:35;68.18;;;32.22;;
29728;SDS011;20055;51.498;11.960;2024-03-08T00:51:02;64.43;;;31.25;;
29728;SDS011;20055;51.498;11.960;2024-03-08T00:53:28;67.63;;;32.38;;
29728;SDS011;20055;51.498;11.960;2024-03-08T00:55:54;72.95;;;31.70;;
29728;SDS011;20055;51.498;11.960;2024-03-08T00:58:21;69.38;;;32.17;;
29728;SDS011;20055;51.498;11.960;2024-03-08T01:00:49;63.83;;;31.67;;
29728;SDS011;20055;51.498;11.960;2024-03-08T01:03:15;78.53;;;32.05;;
29728;SDS011;20055;51.498;11.960;2024-03-08T01:05:41;72.38;;;30.98;;
29728;SDS011;20055;51.498;11.960;2024-03-08T01:08:08;66.40;;;30.17;;
29728;SDS011;20055;51.498;11.960;2024-03-08T01:10:37;68.18;;;31.25;;
29728;SDS011;20055;51.498;11.960;2024-03-08T01:13:03;59.75;;;31.27;;
29728;SDS011;20055;51.498;11.960;2024-03-08T01:15:29;61.28;;;31.58;;
29728;SDS011;20055;51.498;11.960;2024-03-08T01:17:56;72.97;;;32.45;;
29728;SDS011;20055;51.498;11.960;2024-03-08T01:20:22;69.68;;;31.92;;
29728;SDS011;20055;51.498;11.960;2024-03-08T01:22:48;66.35;;;30.77;;
29728;SDS011;20055;51.498;11.960;2024-03-08T01:25:14;61.60;;;29.83;;
29728;SDS011;20055;51.498;11.960;2024-03-08T01:27:40;62.90;;;30.95;;
29728;SDS011;20055;51.498;11.960;2024-03-08T01:30:07;62.97;;;30.30;;
29728;SDS011;20055;51.498;11.960;2024-03-08T01:32:35;64.60;;;31.23;;
29728;SDS011;20055;51.498;11.960;2024-03-08T01:35:01;66.60;;;31.23;;
29728;SDS011;20055;51.498;11.960;2024-03-08T01:37:28;66.57;;;29.98;;
29728;SDS011;20055;51.498;11.960;2024-03-08T01:39:55;67.65;;;31.35;;
29728;SDS011;20055;51.498;11.960;2024-03-08T01:42:21;61.00;;;30.27;;
29728;SDS011;20055;51.498;11.960;2024-03-08T01:44:47;71.13;;;33.53;;
29728;SDS011;20055;51.498;11.960;2024-03-08T01:47:14;71.65;;;31.33;;
29728;SDS011;20055;51.498;11.960;2024-03-08T01:49:40;67.97;;;31.85;;
29728;SDS011;20055;51.498;11.960;2024-03-08T01:52:06;91.85;;;32.85;;
29728;SDS011;20055;51.498;11.960;2024-03-08T01:54:33;64.82;;;31.15;;
29728;SDS011;20055;51.498;11.960;2024-03-08T01:57:01;65.68;;;32.20;;
29728;SDS011;20055;51.498;11.960;2024-03-08T01:59:27;67.63;;;33.15;;
29728;SDS011;20055;51.498;11.960;2024-03-08T02:01:55;61.63;;;31.17;;
29728;SDS011;20055;51.498;11.960;2024-03-08T02:04:26;70.45;;;33.22;;
29728;SDS011;20055;51.498;11.960;2024-03-08T02:06:52;65.53;;;31.45;;
29728;SDS011;20055;51.498;11.960;2024-03-08T02:09:19;70.78;;;32.90;;
29728;SDS011;20055;51.498;11.960;2024-03-08T02:11:45;72.05;;;33.55;;
29728;SDS011;20055;51.498;11.960;2024-03-08T02:14:12;67.28;;;32.40;;
29728;SDS011;20055;51.498;11.960;2024-03-08T02:16:38;68.13;;;32.00;;
29728;SDS011;20055;51.498;11.960;2024-03-08T02:19:05;65.82;;;32.95;;
29728;SDS011;20055;51.498;11.960;2024-03-08T02:21:34;66.90;;;33.13;;
29728;SDS011;20055;51.498;11.960;2024-03-08T02:24:01;67.07;;;33.35;;
29728;SDS011;20055;51.498;11.960;2024-03-08T02:26:28;73.03;;;32.35;;
29728;SDS011;20055;51.498;11.960;2024-03-08T02:28:55;68.57;;;31.80;;
29728;SDS011;20055;51.498;11.960;2024-03-08T02:31:21;63.28;;;32.55;;
29728;SDS011;20055;51.498;11.960;2024-03-08T02:33:47;69.75;;;32.75;;
29728;SDS011;20055;51.498;11.960;2024-03-08T02:36:14;71.88;;;33.05;;
29728;SDS011;20055;51.498;11.960;2024-03-08T02:38:40;66.13;;;31.95;;
29728;SDS011;20055;51.498;11.960;2024-03-08T02:41:07;70.22;;;32.35;;
29728;SDS011;20055;51.498;11.960;2024-03-08T02:43:34;74.00;;;32.47;;
29728;SDS011;20055;51.498;11.960;2024-03-08T02:46:00;67.80;;;33.22;;
29728;SDS011;20055;51.498;11.960;2024-03-08T02:48:26;74.53;;;32.33;;
29728;SDS011;20055;51.498;11.960;2024-03-08T02:50:52;74.30;;;32.65;;
29728;SDS011;20055;51.498;11.960;2024-03-08T02:53:19;77.65;;;32.58;;
29728;SDS011;20055;51.498;11.960;2024-03-08T02:55:45;69.75;;;31.60;;
29728;SDS011;20055;51.498;11.960;2024-03-08T02:58:12;67.53;;;32.08;;
29728;SDS011;20055;51.498;11.960;2024-03-08T03:00:40;70.80;;;33.05;;
29728;SDS011;20055;51.498;11.960;2024-03-08T03:03:06;69.30;;;31.73;;
29728;SDS011;20055;51.498;11.960;2024-03-08T03:05:33;75.30;;;32.67;;
29728;SDS011;20055;51.498;11.960;2024-03-08T03:08:00;66.18;;;31.45;;
29728;SDS011;20055;51.498;11.960;2024-03-08T03:10:26;66.30;;;32.30;;
29728;SDS011;20055;51.498;11.960;2024-03-08T03:12:52;66.63;;;31.50;;
29728;SDS011;20055;51.498;11.960;2024-03-08T03:15:18;69.10;;;33.20;;
29728;SDS011;20055;51.498;11.960;2024-03-08T03:17:45;71.57;;;32.85;;
29728;SDS011;20055;51.498;11.960;2024-03-08T03:20:13;71.03;;;31.02;;
29728;SDS011;20055;51.498;11.960;2024-03-08T03:22:40;66.03;;;30.90;;
29728;SDS011;20055;51.498;11.960;2024-03-08T03:25:07;79.88;;;32.90;;
29728;SDS011;20055;51.498;11.960;2024-03-08T03:27:35;65.95;;;30.50;;
29728;SDS011;20055;51.498;11.960;2024-03-08T03:30:03;71.70;;;31.70;;
29728;SDS011;20055;51.498;11.960;2024-03-08T03:32:49;68.65;;;32.83;;
29728;SDS011;20055;51.498;11.960;2024-03-08T03:35:17;70.25;;;31.70;;
29728;SDS011;20055;51.498;11.960;2024-03-08T03:37:44;64.55;;;31.45;;
29728;SDS011;20055;51.498;11.960;2024-03-08T03:40:17;72.05;;;31.80;;
29728;SDS011;20055;51.498;11.960;2024-03-08T03:42:46;76.68;;;32.72;;
29728;SDS011;20055;51.498;11.960;2024-03-08T03:45:13;68.03;;;31.42;;
29728;SDS011;20055;51.498;11.960;2024-03-08T03:47:42;71.30;;;31.20;;
29728;SDS011;20055;51.498;11.960;2024-03-08T03:50:08;72.72;;;31.65;;
29728;SDS011;20055;51.498;11.960;2024-03-08T03:52:35;70.22;;;31.75;;
29728;SDS011;20055;51.498;11.960;2024-03-08T03:55:01;73.97;;;33.78;;
29728;SDS011;20055;51.498;11.960;2024-03-08T03:57:30;71.35;;;31.65;;
29728;SDS011;20055;51.498;11.960;2024-03-08T03:59:56;73.80;;;33.78;;
29728;SDS011;20055;51.498;11.960;2024-03-08T04:02:24;75.13;;;32.55;;
29728;SDS011;20055;51.498;11.960;2024-03-08T04:04:52;71.50;;;32.53;;
29728;SDS011;20055;51.498;11.960;2024-03-08T04:07:20;71.03;;;32.85;;
29728;SDS011;20055;51.498;11.960;2024-03-08T04:09:46;72.30;;;33.38;;
29728;SDS011;20055;51.498;11.960;2024-03-08T04:12:13;76.15;;;33.28;;
29728;SDS011;20055;51.498;11.960;2024-03-08T04:14:41;72.20;;;32.55;;
29728;SDS011;20055;51.498;11.960;2024-03-08T04:17:08;68.32;;;30.45;;
29728;SDS011;20055;51.498;11.960;2024-03-08T04:19:35;67.72;;;32.63;;
29728;SDS011;20055;51.498;11.960;2024-03-08T04:22:01;73.72;;;32.83;;
29728;SDS011;20055;51.498;11.960;2024-03-08T04:24:27;69.57;;;32.13;;
29728;SDS011;20055;51.498;11.960;2024-03-08T04:26:54;66.28;;;32.00;;
29728;SDS011;20055;51.498;11.960;2024-03-08T04:29:20;79.07;;;33.78;;
29728;SDS011;20055;51.498;11.960;2024-03-08T04:31:47;70.78;;;32.65;;
29728;SDS011;20055;51.498;11.960;2024-03-08T04:34:13;69.13;;;31.17;;
29728;SDS011;20055;51.498;11.960;2024-03-08T04:36:40;74.55;;;32.22;;
29728;SDS011;20055;51.498;11.960;2024-03-08T04:39:06;73.15;;;35.03;;
29728;SDS011;20055;51.498;11.960;2024-03-08T04:41:38;67.00;;;31.63;;
29728;SDS011;20055;51.498;11.960;2024-03-08T04:44:05;79.95;;;33.55;;
29728;SDS011;20055;51.498;11.960;2024-03-08T04:46:31;86.10;;;39.00;;
29728;SDS011;20055;51.498;11.960;2024-03-08T04:48:58;83.20;;;36.30;;
29728;SDS011;20055;51.498;11.960;2024-03-08T04:51:25;83.18;;;34.90;;
29728;SDS011;20055;51.498;11.960;2024-03-08T04:53:51;76.45;;;35.70;;
29728;SDS011;20055;51.498;11.960;2024-03-08T04:56:22;73.47;;;35.88;;
29728;SDS011;20055;51.498;11.960;2024-03-08T04:58:54;83.07;;;36.45;;
29728;SDS011;20055;51.498;11.960;2024-03-08T05:01:23;79.20;;;37.03;;
29728;SDS011;20055;51.498;11.960;2024-03-08T05:03:56;78.30;;;35.67;;
29728;SDS011;20055;51.498;11.960;2024-03-08T05:06:27;84.75;;;37.20;;
29728;SDS011;20055;51.498;11.960;2024-03-08T05:09:10;82.32;;;37.53;;
29728;SDS011;20055;51.498;11.960;2024-03-08T05:11:41;98.88;;;38.58;;
29728;SDS011;20055;51.498;11.960;2024-03-08T05:14:13;100.22;;;40.50;;
29728;SDS011;20055;51.498;11.960;2024-03-08T05:17:03;79.07;;;36.65;;
29728;SDS011;20055;51.498;11.960;2024-03-08T05:19:32;78.75;;;36.13;;
29728;SDS011;20055;51.498;11.960;2024-03-08T05:21:59;93.55;;;37.63;;
29728;SDS011;20055;51.498;11.960;2024-03-08T05:24:25;91.65;;;38.38;;
29728;SDS011;20055;51.498;11.960;2024-03-08T05:26:51;73.85;;;36.40;;
29728;SDS011;20055;51.498;11.960;2024-03-08T05:29:18;83.78;;;37.13;;
29728;SDS011;20055;51.498;11.960;2024-03-08T05:34:14;82.78;;;37.03;;
29728;SDS011;20055;51.498;11.960;2024-03-08T05:36:41;81.45;;;34.50;;
29728;SDS011;20055;51.498;11.960;2024-03-08T05:39:12;78.40;;;36.97;;
29728;SDS011;20055;51.498;11.960;2024-03-08T05:41:39;74.10;;;34.35;;
29728;SDS011;20055;51.498;11.960;2024-03-08T05:44:06;74.78;;;33.50;;
29728;SDS011;20055;51.498;11.960;2024-03-08T05:46:32;81.53;;;35.80;;
29728;SDS011;20055;51.498;11.960;2024-03-08T05:48:58;79.30;;;35.30;;
29728;SDS011;20055;51.498;11.960;2024-03-08T05:51:25;77.50;;;35.00;;
29728;SDS011;20055;51.498;11.960;2024-03-08T05:53:53;85.82;;;36.17;;
29728;SDS011;20055;51.498;11.960;2024-03-08T05:56:22;96.57;;;37.05;;
29728;SDS011;20055;51.498;11.960;2024-03-08T05:58:49;73.30;;;35.00;;
29728;SDS011;20055;51.498;11.960;2024-03-08T06:01:15;76.30;;;34.53;;
29728;SDS011;20055;51.498;11.960;2024-03-08T06:03:42;73.47;;;34.13;;
29728;SDS011;20055;51.498;11.960;2024-03-08T06:06:12;70.60;;;32.50;;
29728;SDS011;20055;51.498;11.960;2024-03-08T06:08:38;88.82;;;36.72;;
29728;SDS011;20055;51.498;11.960;2024-03-08T06:11:05;78.88;;;35.10;;
29728;SDS011;20055;51.498;11.960;2024-03-08T06:13:34;69.32;;;33.13;;
29728;SDS011;20055;51.498;11.960;2024-03-08T06:16:01;76.55;;;33.92;;
29728;SDS011;20055;51.498;11.960;2024-03-08T06:18:30;82.03;;;35.03;;
29728;SDS011;20055;51.498;11.960;2024-03-08T06:20:57;80.80;;;34.60;;
29728;SDS011;20055;51.498;11.960;2024-03-08T06:23:23;77.47;;;33.90;;
29728;SDS011;20055;51.498;11.960;2024-03-08T06:25:49;73.50;;;33.80;;
29728;SDS011;20055;51.498;11.960;2024-03-08T06:28:15;78.35;;;35.20;;
29728;SDS011;20055;51.498;11.960;2024-03-08T06:30:42;75.22;;;35.42;;
29728;SDS011;20055;51.498;11.960;2024-03-08T06:33:08;76.63;;;34.78;;
29728;SDS011;20055;51.498;11.960;2024-03-08T06:35:36;83.32;;;37.45;;
29728;SDS011;20055;51.498;11.960;2024-03-08T06:38:03;80.95;;;34.38;;
29728;SDS011;20055;51.498;11.960;2024-03-08T06:40:30;83.15;;;34.80;;
29728;SDS011;20055;51.498;11.960;2024-03-08T06:42:56;74.95;;;35.65;;
29728;SDS011;20055;51.498;11.960;2024-03-08T06:45:22;82.30;;;37.15;;
29728;SDS011;20055;51.498;11.960;2024-03-08T06:47:49;80.18;;;36.33;;
29728;SDS011;20055;51.498;11.960;2024-03-08T06:50:15;75.63;;;35.33;;
29728;SDS011;20055;51.498;11.960;2024-03-08T06:52:42;85.57;;;36.85;;
29728;SDS011;20055;51.498;11.960;2024-03-08T06:55:10;77.00;;;36.17;;
29728;SDS011;20055;51.498;11.960;2024-03-08T06:57:40;83.85;;;38.40;;
29728;SDS011;20055;51.498;11.960;2024-03-08T07:00:07;83.10;;;37.00;;
29728;SDS011;20055;51.498;11.960;2024-03-08T07:02:44;82.55;;;37.25;;
29728;SDS011;20055;51.498;11.960;2024-03-08T07:05:19;86.85;;;39.40;;
29728;SDS011;20055;51.498;11.960;2024-03-08T07:07:45;82.25;;;38.40;;
29728;SDS011;20055;51.498;11.960;2024-03-08T07:10:14;85.22;;;39.63;;
29728;SDS011;20055;51.498;11.960;2024-03-08T07:12:41;89.22;;;41.50;;
29728;SDS011;20055;51.498;11.960;2024-03-08T07:15:08;81.90;;;37.20;;
29728;SDS011;20055;51.498;11.960;2024-03-08T07:17:39;79.50;;;38.50;;
29728;SDS011;20055;51.498;11.960;2024-03-08T07:20:06;89.97;;;39.35;;
29728;SDS011;20055;51.498;11.960;2024-03-08T07:22:37;78.07;;;38.75;;
29728;SDS011;20055;51.498;11.960;2024-03-08T07:25:07;91.22;;;39.33;;
29728;SDS011;20055;51.498;11.960;2024-03-08T07:27:47;83.00;;;38.65;;
29728;SDS011;20055;51.498;11.960;2024-03-08T07:30:14;85.93;;;40.65;;
29728;SDS011;20055;51.498;11.960;2024-03-08T07:32:59;83.05;;;38.40;;
29728;SDS011;20055;51.498;11.960;2024-03-08T07:35:28;83.32;;;37.70;;
29728;SDS011;20055;51.498;11.960;2024-03-08T07:37:55;89.13;;;39.60;;
29728;SDS011;20055;51.498;11.960;2024-03-08T07:40:22;82.95;;;38.17;;
29728;SDS011;20055;51.498;11.960;2024-03-08T07:42:49;82.70;;;38.10;;
29728;SDS011;20055;51.498;11.960;2024-03-08T07:45:16;87.45;;;39.17;;
29728;SDS011;20055;51.498;11.960;2024-03-08T07:47:42;79.82;;;38.30;;
29728;SDS011;20055;51.498;11.960;2024-03-08T07:50:10;85.93;;;39.25;;
29728;SDS011;20055;51.498;11.960;2024-03-08T07:52:36;81.78;;;39.08;;
29728;SDS011;20055;51.498;11.960;2024-03-08T07:55:03;84.40;;;39.88;;
29728;SDS011;20055;51.498;11.960;2024-03-08T07:57:29;84.47;;;39.25;;
29728;SDS011;20055;51.498;11.960;2024-03-08T07:59:55;95.20;;;40.85;;
29728;SDS011;20055;51.498;11.960;2024-03-08T08:02:22;92.28;;;39.88;;
29728;SDS011;20055;51.498;11.960;2024-03-08T08:04:48;91.82;;;40.42;;
29728;SDS011;20055;51.498;11.960;2024-03-08T08:07:14;87.30;;;39.97;;
29728;SDS011;20055;51.498;11.960;2024-03-08T08:09:41;85.25;;;38.67;;
29728;SDS011;20055;51.498;11.960;2024-03-08T08:12:08;90.82;;;38.95;;
29728;SDS011;20055;51.498;11.960;2024-03-08T08:14:38;89.07;;;40.95;;
29728;SDS011;20055;51.498;11.960;2024-03-08T08:17:04;80.57;;;38.10;;
29728;SDS011;20055;51.498;11.960;2024-03-08T08:19:31;86.80;;;39.33;;
29728;SDS011;20055;51.498;11.960;2024-03-08T08:21:57;85.97;;;39.83;;
29728;SDS011;20055;51.498;11.960;2024-03-08T08:24:23;85.32;;;38.15;;
29728;SDS011;20055;51.498;11.960;2024-03-08T08:26:50;81.72;;;39.50;;
29728;SDS011;20055;51.498;11.960;2024-03-08T08:29:16;84.15;;;38.30;;
29728;SDS011;20055;51.498;11.960;2024-03-08T08:31:42;82.88;;;38.88;;
29728;SDS011;20055;51.498;11.960;2024-03-08T08:34:11;81.65;;;38.10;;
29728;SDS011;20055;51.498;11.960;2024-03-08T08:36:39;85.13;;;38.75;;
29728;SDS011;20055;51.498;11.960;2024-03-08T08:39:05;91.55;;;37.88;;
29728;SDS011;20055;51.498;11.960;2024-03-08T08:41:39;76.85;;;35.92;;
29728;SDS011;20055;51.498;11.960;2024-03-08T08:44:07;83.97;;;38.25;;
29728;SDS011;20055;51.498;11.960;2024-03-08T08:46:38;83.22;;;38.70;;
29728;SDS011;20055;51.498;11.960;2024-03-08T08:49:05;76.85;;;35.83;;
29728;SDS011;20055;51.498;11.960;2024-03-08T08:51:36;85.63;;;38.15;;
29728;SDS011;20055;51.498;11.960;2024-03-08T08:54:02;78.18;;;36.42;;
29728;SDS011;20055;51.498;11.960;2024-03-08T08:56:29;82.05;;;38.45;;
29728;SDS011;20055;51.498;11.960;2024-03-08T08:58:55;78.05;;;40.38;;
29728;SDS011;20055;51.498;11.960;2024-03-08T09:01:21;73.78;;;36.83;;
29728;SDS011;20055;51.498;11.960;2024-03-08T09:03:49;79.03;;;37.70;;
29728;SDS011;20055;51.498;11.960;2024-03-08T09:06:16;85.35;;;38.30;;
29728;SDS011;20055;51.498;11.960;2024-03-08T09:08:42;81.30;;;37.42;;
29728;SDS011;20055;51.498;11.960;2024-03-08T09:11:09;76.90;;;36.92;;
29728;SDS011;20055;51.498;11.960;2024-03-08T09:13:36;74.75;;;37.63;;
29728;SDS011;20055;51.498;11.960;2024-03-08T09:16:03;76.20;;;37.88;;
29728;SDS011;20055;51.498;11.960;2024-03-08T09:18:31;82.65;;;37.90;;
29728;SDS011;20055;51.498;11.960;2024-03-08T09:20:58;78.43;;;37.53;;
29728;SDS011;20055;51.498;11.960;2024-03-08T09:23:25;73.10;;;35.05;;
29728;SDS011;20055;51.498;11.960;2024-03-08T09:25:56;78.93;;;36.92;;
29728;SDS011;20055;51.498;11.960;2024-03-08T09:28:23;76.50;;;37.80;;
29728;SDS011;20055;51.498;11.960;2024-03-08T09:30:50;80.53;;;35.65;;
29728;SDS011;20055;51.498;11.960;2024-03-08T09:33:16;81.82;;;36.13;;
29728;SDS011;20055;51.498;11.960;2024-03-08T09:35:45;77.20;;;36.00;;
29728;SDS011;20055;51.498;11.960;2024-03-08T09:38:17;69.80;;;34.53;;
29728;SDS011;20055;51.498;11.960;2024-03-08T09:40:43;77.63;;;36.03;;
29728;SDS011;20055;51.498;11.960;2024-03-08T09:43:09;75.03;;;37.75;;
29728;SDS011;20055;51.498;11.960;2024-03-08T09:45:39;66.43;;;33.78;;
29728;SDS011;20055;51.498;11.960;2024-03-08T09:48:10;74.22;;;36.53;;
29728;SDS011;20055;51.498;11.960;2024-03-08T09:50:40;72.82;;;36.75;;
29728;SDS011;20055;51.498;11.960;2024-03-08T09:53:09;79.97;;;37.13;;
29728;SDS011;20055;51.498;11.960;2024-03-08T09:55:38;76.88;;;37.83;;
29728;SDS011;20055;51.498;11.960;2024-03-08T09:58:08;81.10;;;37.92;;
29728;SDS011;20055;51.498;11.960;2024-03-08T10:00:56;72.10;;;36.70;;
29728;SDS011;20055;51.498;11.960;2024-03-08T10:03:28;76.35;;;37.30;;
29728;SDS011;20055;51.498;11.960;2024-03-08T10:05:58;71.38;;;36.15;;
29728;SDS011;20055;51.498;11.960;2024-03-08T10:08:26;67.07;;;34.47;;
29728;SDS011;20055;51.498;11.960;2024-03-08T10:10:55;74.90;;;37.50;;
29728;SDS011;20055;51.498;11.960;2024-03-08T10:13:25;71.85;;;34.17;;
29728;SDS011;20055;51.498;11.960;2024-03-08T10:18:21;66.32;;;34.20;;
29728;SDS011;20055;51.498;11.960;2024-03-08T10:21:01;72.32;;;37.22;;
29728;SDS011;20055;51.498;11.960;2024-03-08T10:23:33;77.07;;;35.42;;
29728;SDS011;20055;51.498;11.960;2024-03-08T10:26:20;66.72;;;34.22;;
29728;SDS011;20055;51.498;11.960;2024-03-08T10:28:49;68.18;;;34.08;;
29728;SDS011;20055;51.498;11.960;2024-03-08T10:31:17;74.32;;;36.33;;
29728;SDS011;20055;51.498;11.960;2024-03-08T10:33:45;79.72;;;35.83;;
29728;SDS011;20055;51.498;11.960;2024-03-08T10:36:12;66.28;;;33.40;;
29728;SDS011;20055;51.498;11.960;2024-03-08T10:38:40;72.25;;;35.17;;
29728;SDS011;20055;51.498;11.960;2024-03-08T10:41:07;69.32;;;35.08;;
29728;SDS011;20055;51.498;11.960;2024-03-08T10:46:37;72.68;;;33.67;;
29728;SDS011;20055;51.498;11.960;2024-03-08T10:49:30;64.85;;;32.33;;
29728;SDS011;20055;51.498;11.960;2024-03-08T10:52:02;69.15;;;33.95;;
29728;SDS011;20055;51.498;11.960;2024-03-08T10:54:30;75.22;;;33.30;;
29728;SDS011;20055;51.498;11.960;2024-03-08T10:56:58;71.25;;;34.25;;
29728;SDS011;20055;51.498;11.960;2024-03-08T10:59:25;69.13;;;33.85;;
29728;SDS011;20055;51.498;11.960;2024-03-08T11:01:53;68.60;;;34.53;;
29728;SDS011;20055;51.498;11.960;2024-03-08T11:04:19;64.70;;;32.47;;
29728;SDS011;20055;51.498;11.960;2024-03-08T11:06:48;68.03;;;33.60;;
29728;SDS011;20055;51.498;11.960;2024-03-08T11:09:28;63.65;;;32.38;;
29728;SDS011;20055;51.498;11.960;2024-03-08T11:14:50;61.67;;;30.63;;
29728;SDS011;20055;51.498;11.960;2024-03-08T11:17:39;65.65;;;31.17;;
29728;SDS011;20055;51.498;11.960;2024-03-08T11:20:13;68.28;;;31.52;;
29728;SDS011;20055;51.498;11.960;2024-03-08T11:22:50;66.25;;;32.15;;
29728;SDS011;20055;51.498;11.960;2024-03-08T11:25:33;63.03;;;31.45;;
29728;SDS011;20055;51.498;11.960;2024-03-08T11:28:14;69.25;;;31.23;;
29728;SDS011;20055;51.498;11.960;2024-03-08T11:30:43;63.38;;;30.50;;
29728;SDS011;20055;51.498;11.960;2024-03-08T11:33:28;59.08;;;29.38;;
29728;SDS011;20055;51.498;11.960;2024-03-08T11:36:03;62.47;;;31.48;;
29728;SDS011;20055;51.498;11.960;2024-03-08T11:38:40;53.25;;;28.45;;
29728;SDS011;20055;51.498;11.960;2024-03-08T11:41:07;60.60;;;29.13;;
29728;SDS011;20055;51.498;11.960;2024-03-08T11:43:34;52.38;;;27.45;;
29728;SDS011;20055;51.498;11.960;2024-03-08T11:46:07;53.85;;;28.65;;
29728;SDS011;20055;51.498;11.960;2024-03-08T11:48:34;64.78;;;30.05;;
29728;SDS011;20055;51.498;11.960;2024-03-08T11:51:04;53.88;;;27.48;;
29728;SDS011;20055;51.498;11.960;2024-03-08T11:53:30;61.40;;;29.25;;
29728;SDS011;20055;51.498;11.960;2024-03-08T11:58:32;53.42;;;28.15;;
29728;SDS011;20055;51.498;11.960;2024-03-08T12:01:05;60.47;;;28.27;;
29728;SDS011;20055;51.498;11.960;2024-03-08T12:03:39;54.47;;;26.70;;
29728;SDS011;20055;51.498;11.960;2024-03-08T12:06:08;55.95;;;28.20;;
29728;SDS011;20055;51.498;11.960;2024-03-08T12:08:35;55.47;;;28.08;;
29728;SDS011;20055;51.498;11.960;2024-03-08T12:11:05;59.50;;;26.52;;
29728;SDS011;20055;51.498;11.960;2024-03-08T12:13:33;58.28;;;27.52;;
29728;SDS011;20055;51.498;11.960;2024-03-08T12:16:00;55.42;;;27.88;;
29728;SDS011;20055;51.498;11.960;2024-03-08T12:18:35;61.60;;;28.95;;
29728;SDS011;20055;51.498;11.960;2024-03-08T12:21:06;57.28;;;28.48;;
29728;SDS011;20055;51.498;11.960;2024-03-08T12:23:37;50.85;;;27.85;;
29728;SDS011;20055;51.498;11.960;2024-03-08T12:26:22;55.92;;;27.67;;
29728;SDS011;20055;51.498;11.960;2024-03-08T12:28:49;53.65;;;28.67;;
29728;SDS011;20055;51.498;11.960;2024-03-08T12:31:16;53.42;;;27.75;;
29728;SDS011;20055;51.498;11.960;2024-03-08T12:33:51;58.60;;;28.05;;
29728;SDS011;20055;51.498;11.960;2024-03-08T12:36:19;58.30;;;27.33;;
29728;SDS011;20055;51.498;11.960;2024-03-08T12:38:46;53.20;;;25.92;;
29728;SDS011;20055;51.498;11.960;2024-03-08T12:41:19;53.97;;;26.77;;
29728;SDS011;20055;51.498;11.960;2024-03-08T12:43:46;53.70;;;26.83;;
29728;SDS011;20055;51.498;11.960;2024-03-08T12:46:16;55.38;;;28.23;;
29728;SDS011;20055;51.498;11.960;2024-03-08T12:48:43;52.88;;;26.25;;
29728;SDS011;20055;51.498;11.960;2024-03-08T12:51:13;48.28;;;26.02;;
29728;SDS011;20055;51.498;11.960;2024-03-08T12:53:40;47.53;;;25.48;;
29728;SDS011;20055;51.498;11.960;2024-03-08T12:56:12;51.70;;;27.23;;
29728;SDS011;20055;51.498;11.960;2024-03-08T12:58:40;63.85;;;27.77;;
29728;SDS011;20055;51.498;11.960;2024-03-08T13:01:06;54.15;;;28.05;;
29728;SDS011;20055;51.498;11.960;2024-03-08T13:03:36;49.83;;;26.65;;
29728;SDS011;20055;51.498;11.960;2024-03-08T13:06:03;56.03;;;29.25;;
29728;SDS011;20055;51.498;11.960;2024-03-08T13:08:36;62.10;;;32.10;;
29728;SDS011;20055;51.498;11.960;2024-03-08T13:11:05;54.75;;;30.17;;
29728;SDS011;20055;51.498;11.960;2024-03-08T13:13:33;65.88;;;31.55;;
29728;SDS011;20055;51.498;11.960;2024-03-08T13:16:02;63.10;;;32.33;;
29728;SDS011;20055;51.498;11.960;2024-03-08T13:18:29;61.90;;;32.58;;
29728;SDS011;20055;51.498;11.960;2024-03-08T13:20:56;64.25;;;32.17;;
29728;SDS011;20055;51.498;11.960;2024-03-08T13:23:23;54.95;;;30.25;;
29728;SDS011;20055;51.498;11.960;2024-03-08T13:25:49;67.18;;;31.55;;
29728;SDS011;20055;51.498;11.960;2024-03-08T13:28:15;69.55;;;31.83;;
29728;SDS011;20055;51.498;11.960;2024-03-08T13:30:42;63.13;;;33.60;;
29728;SDS011;20055;51.498;11.960;2024-03-08T13:33:10;67.35;;;32.80;;
29728;SDS011;20055;51.498;11.960;2024-03-08T13:35:36;62.22;;;31.80;;
29728;SDS011;20055;51.498;11.960;2024-03-08T13:38:03;58.58;;;32.28;;
29728;SDS011;20055;51.498;11.960;2024-03-08T13:40:31;60.08;;;30.10;;
29728;SDS011;20055;51.498;11.960;2024-03-08T13:42:57;68.25;;;33.17;;
29728;SDS011;20055;51.498;11.960;2024-03-08T13:45:24;62.22;;;31.35;;
29728;SDS011;20055;51.498;11.960;2024-03-08T13:47:50;65.22;;;32.42;;
29728;SDS011;20055;51.498;11.960;2024-03-08T13:50:20;65.03;;;32.35;;
29728;SDS011;20055;51.498;11.960;2024-03-08T13:52:49;57.17;;;31.63;;
29728;SDS011;20055;51.498;11.960;2024-03-08T13:55:19;58.97;;;31.38;;
29728;SDS011;20055;51.498;11.960;2024-03-08T13:57:50;64.53;;;30.83;;
29728;SDS011;20055;51.498;11.960;2024-03-08T14:00:17;64.57;;;29.50;;
29728;SDS011;20055;51.498;11.960;2024-03-08T14:02:43;55.67;;;29.33;;
29728;SDS011;20055;51.498;11.960;2024-03-08T14:05:09;60.53;;;29.85;;
29728;SDS011;20055;51.498;11.960;2024-03-08T14:07:37;58.85;;;29.67;;
29728;SDS011;20055;51.498;11.960;2024-03-08T14:10:04;57.30;;;30.13;;
29728;SDS011;20055;51.498;11.960;2024-03-08T14:12:32;58.50;;;29.50;;
29728;SDS011;20055;51.498;11.960;2024-03-08T14:14:59;63.15;;;30.08;;
29728;SDS011;20055;51.498;11.960;2024-03-08T14:17:25;55.53;;;29.80;;
29728;SDS011;20055;51.498;11.960;2024-03-08T14:19:53;62.05;;;30.45;;
29728;SDS011;20055;51.498;11.960;2024-03-08T14:22:20;57.42;;;29.92;;
29728;SDS011;20055;51.498;11.960;2024-03-08T14:24:46;62.72;;;30.77;;
29728;SDS011;20055;51.498;11.960;2024-03-08T14:27:12;59.35;;;28.75;;
29728;SDS011;20055;51.498;11.960;2024-03-08T14:29:40;54.88;;;28.15;;